Clawson, Michigan
Current Conditions -  °F | °C
As of 8:34 PM on Tuesday 21 Oct 2014 (Local Time) from KVLL Reporting Station
Overcast Overcast  
Wind Chill: 39°   Ceiling: 2200
Heat Index: 45°   Visibility: 10mi
Dew Point: 36°   Wind: 12mph
Humidity: 70%   Direction: 360°N
Pressure: 30.18"   Gusts: 23mph
Location:  42.54°N, 83.15°W
Report Text: KVLL 220034Z AUTO 36010G20KT 10SM OVC022 07/02 A3018 RMK AO2 T00730021
Loading
Personal Weather Stations






























Interactive Weather Map
Tropical Storm Tracking
New forecast layout! Learn more

10-Day Weather Forecast

Advertisements
Track Severe Weather on mobile